Airport View

Enter AWOS ICAO identifier for current METAR.

ex. KFNL

KRCZ 261240Z AUTO 36005KT 10SM CLR 25/15 A3014 RMK AO2 T02520148

26 Jun 2019 13:00

Frequency: 118.775

Phone: 910-997-4093

Other Area AWOS: KCQW - KHFF - KBBP - KAFP

TAF KLBT 261120Z 2612/2712 VRB03KT P6SM FEW250 FM262300 03005KT P6SM FEW070 FEW250 FM270500 VRB03KT P6SM SCT250 AMD NOT SKED